createdAt,value
2023-07-11T00:01:30.725Z,98163.47
2023-07-11T00:03:59.238Z,98179.41
2023-07-11T00:06:27.285Z,98163.63
2023-07-11T00:08:56.741Z,98168.16
2023-07-11T00:11:26.140Z,98153.91
2023-07-11T00:13:57.034Z,98147.31
2023-07-11T00:16:25.276Z,98152.25
2023-07-11T00:18:53.367Z,98149.44
2023-07-11T00:21:21.453Z,98150.88
2023-07-11T00:23:49.527Z,98156.16
2023-07-11T00:26:19.407Z,98149.78
2023-07-11T00:28:47.621Z,98147.56
2023-07-11T00:31:15.771Z,98138.34
2023-07-11T00:33:43.953Z,98142.31
2023-07-11T00:36:12.139Z,98141.06
2023-07-11T00:38:40.317Z,98141.59
2023-07-11T00:41:09.889Z,98135.72
2023-07-11T00:43:39.296Z,98147.41
2023-07-11T00:46:14.014Z,98156.56
2023-07-11T00:48:46.566Z,98156.66
2023-07-11T00:51:18.085Z,98156.59
2023-07-11T00:53:49.073Z,98155.09
2023-07-11T00:56:21.234Z,98151.44
2023-07-11T00:58:52.100Z,98152.59
2023-07-11T01:01:22.213Z,98137.69
2023-07-11T01:03:52.856Z,98148.25
2023-07-11T01:06:23.654Z,98154.13
2023-07-11T01:08:54.339Z,98150.97
2023-07-11T01:11:24.412Z,98150.03
2023-07-11T01:13:54.105Z,98156.78
2023-07-11T01:16:22.734Z,98152.81
2023-07-11T01:18:51.028Z,98155.09
2023-07-11T01:21:22.746Z,98157.28
2023-07-11T01:23:51.552Z,98144.84
2023-07-11T01:26:19.674Z,98151.00
2023-07-11T01:28:48.381Z,98106.19
2023-07-11T01:31:16.621Z,98124.31
2023-07-11T01:33:44.764Z,98129.78
2023-07-11T01:36:12.949Z,98115.06
2023-07-11T01:38:42.836Z,98151.84
2023-07-11T01:41:11.951Z,98129.41
2023-07-11T01:43:40.215Z,98136.09
2023-07-11T01:46:08.928Z,98152.31
2023-07-11T01:48:37.296Z,98149.84
2023-07-11T01:51:05.366Z,98121.66
2023-07-11T01:53:33.489Z,98149.84
2023-07-11T01:56:05.608Z,98138.44
2023-07-11T01:58:35.543Z,98151.19
2023-07-11T02:01:03.858Z,98142.34
2023-07-11T02:03:32.306Z,98152.50
2023-07-11T02:06:00.433Z,98161.47
2023-07-11T02:08:28.543Z,98141.63
2023-07-11T02:10:56.682Z,98146.19
2023-07-11T02:13:26.195Z,98153.50
2023-07-11T02:15:54.993Z,98145.47
2023-07-11T02:18:24.383Z,98159.47
2023-07-11T02:20:52.749Z,98161.69
2023-07-11T02:23:22.699Z,98172.38
2023-07-11T02:25:54.416Z,98176.09
2023-07-11T02:28:22.601Z,98182.88
2023-07-11T02:30:52.056Z,98176.47
2023-07-11T02:33:20.251Z,98176.44
2023-07-11T02:35:48.419Z,98177.50
2023-07-11T02:38:16.514Z,98187.00
2023-07-11T02:40:44.561Z,98183.81
2023-07-11T02:43:12.734Z,98178.28
2023-07-11T02:45:41.375Z,98188.56
2023-07-11T02:48:10.936Z,98184.31
2023-07-11T02:50:39.133Z,98190.25
2023-07-11T02:53:07.193Z,98181.16
2023-07-11T02:55:35.333Z,98180.47
2023-07-11T02:58:03.368Z,98173.22
2023-07-11T03:00:31.944Z,98183.38
2023-07-11T03:03:00.047Z,98183.94
2023-07-11T03:05:29.707Z,98179.81
2023-07-11T03:07:57.865Z,98181.53
2023-07-11T03:10:25.915Z,98186.19
2023-07-11T03:12:53.915Z,98196.78
2023-07-11T03:15:22.093Z,98201.41
2023-07-11T03:17:50.139Z,98203.94
2023-07-11T03:20:18.370Z,98196.28
2023-07-11T03:22:48.221Z,98195.09
2023-07-11T03:25:16.479Z,98195.94
2023-07-11T03:27:44.518Z,98195.69
2023-07-11T03:30:13.089Z,98187.25
2023-07-11T03:32:41.228Z,98194.13
2023-07-11T03:35:10.210Z,98194.13
2023-07-11T03:37:38.412Z,98205.50
2023-07-11T03:40:09.721Z,98224.22
2023-07-11T03:42:38.028Z,98195.19
2023-07-11T03:45:07.535Z,98189.59
2023-07-11T03:47:35.761Z,98176.44
2023-07-11T03:50:04.365Z,98185.00
2023-07-11T03:52:32.431Z,98190.47
2023-07-11T03:55:00.473Z,98206.91
2023-07-11T03:57:30.049Z,98189.56
2023-07-11T03:59:58.257Z,98201.47
2023-07-11T04:02:26.347Z,98217.91
2023-07-11T04:04:54.579Z,98204.00
2023-07-11T04:07:22.646Z,98195.69
2023-07-11T04:09:50.846Z,98214.41
2023-07-11T04:12:19.001Z,98214.09
2023-07-11T04:14:48.476Z,98212.94
2023-07-11T04:17:16.548Z,98217.28
2023-07-11T04:19:44.649Z,98216.16
2023-07-11T04:22:12.730Z,98209.75
2023-07-11T04:24:40.854Z,98208.88
2023-07-11T04:27:08.967Z,98220.00
2023-07-11T04:29:37.752Z,98221.41
2023-07-11T04:32:08.520Z,98227.69
2023-07-11T04:34:36.711Z,98220.03
2023-07-11T04:37:04.966Z,98232.13
2023-07-11T04:39:33.052Z,98231.44
2023-07-11T04:42:01.183Z,98227.69
2023-07-11T04:44:29.228Z,98246.53
2023-07-11T04:46:57.383Z,98228.63
2023-07-11T04:49:26.736Z,98248.16
2023-07-11T04:51:54.868Z,98236.22
2023-07-11T04:54:24.178Z,98243.63
2023-07-11T04:56:58.268Z,98239.19
2023-07-11T04:59:27.430Z,98241.53
2023-07-11T05:01:55.625Z,98260.34
2023-07-11T05:04:24.381Z,98248.06
2023-07-11T05:06:54.159Z,98252.25
2023-07-11T05:09:23.140Z,98257.56
2023-07-11T05:11:52.549Z,98272.09
2023-07-11T05:14:20.785Z,98257.19
2023-07-11T05:16:49.069Z,98264.63
2023-07-11T05:19:17.540Z,98270.06
2023-07-11T05:21:45.617Z,98266.97
2023-07-11T05:24:15.122Z,98276.75
2023-07-11T05:26:43.277Z,98279.63
2023-07-11T05:29:11.703Z,98283.72
2023-07-11T05:31:39.919Z,98272.97
2023-07-11T05:34:08.028Z,98286.41
2023-07-11T05:36:37.170Z,98258.53
2023-07-11T05:39:07.945Z,98274.94
2023-07-11T05:41:39.485Z,98262.78
2023-07-11T05:44:07.635Z,98263.03
2023-07-11T05:46:35.694Z,98286.53
2023-07-11T05:49:04.428Z,98290.63
2023-07-11T05:51:33.003Z,98269.34
2023-07-11T05:54:01.063Z,98258.72
2023-07-11T05:56:29.825Z,98266.56
2023-07-11T05:59:00.349Z,98277.16
2023-07-11T06:01:31.736Z,98269.31
2023-07-11T06:04:08.823Z,98285.94
2023-07-11T06:06:43.208Z,98263.84
2023-07-11T06:09:13.354Z,98284.19
2023-07-11T06:11:41.619Z,98280.78
2023-07-11T06:14:11.850Z,98286.69
2023-07-11T06:16:41.363Z,98286.31
2023-07-11T06:19:09.518Z,98275.59
2023-07-11T06:21:37.549Z,98276.72
2023-07-11T06:24:05.993Z,98281.56
2023-07-11T06:26:34.193Z,98272.25
2023-07-11T06:29:02.269Z,98263.75
2023-07-11T06:31:31.799Z,98298.16
2023-07-11T06:33:59.876Z,98285.78
2023-07-11T06:36:27.989Z,98293.88
2023-07-11T06:38:56.261Z,98285.59
2023-07-11T06:41:24.376Z,98262.31
2023-07-11T06:43:52.487Z,98286.97
2023-07-11T06:46:20.664Z,98281.41
2023-07-11T06:48:50.170Z,98270.94
2023-07-11T06:51:18.340Z,98279.59
2023-07-11T06:53:46.472Z,98274.25
2023-07-11T06:56:15.523Z,98286.19
2023-07-11T06:58:43.693Z,98276.28
2023-07-11T07:01:30.985Z,98270.31
2023-07-11T07:04:06.473Z,98285.31
2023-07-11T07:06:36.502Z,98263.28
2023-07-11T07:09:05.996Z,98293.16
2023-07-11T07:11:34.243Z,98298.41
2023-07-11T07:14:06.309Z,98307.09
2023-07-11T07:16:36.293Z,98289.00
2023-07-11T07:19:06.922Z,98295.38
2023-07-11T07:21:35.345Z,98298.44
2023-07-11T07:24:03.791Z,98293.53
2023-07-11T07:26:32.185Z,98290.41
2023-07-11T07:29:00.275Z,98275.66
2023-07-11T07:31:28.630Z,98305.41
2023-07-11T07:33:56.959Z,98294.13
2023-07-11T07:36:26.436Z,98298.03
2023-07-11T07:38:54.541Z,98295.09
2023-07-11T07:41:23.023Z,98289.44
2023-07-11T07:43:51.087Z,98290.94
2023-07-11T07:46:20.527Z,98303.50
2023-07-11T07:48:48.742Z,98282.81
2023-07-11T07:51:19.215Z,98297.66
2023-07-11T07:53:49.413Z,98296.00
2023-07-11T07:56:19.790Z,98291.31
2023-07-11T07:58:48.167Z,98309.47
2023-07-11T08:01:18.094Z,98287.19
2023-07-11T08:03:46.706Z,98275.88
2023-07-11T08:06:17.708Z,98296.00
2023-07-11T08:08:46.890Z,98292.50
2023-07-11T08:11:18.184Z,98314.38
2023-07-11T08:16:30.790Z,98299.66
2023-07-11T08:19:02.912Z,98273.16
2023-07-11T08:21:31.127Z,98292.22
2023-07-11T08:23:59.229Z,98320.56
2023-07-11T08:26:28.838Z,98291.41
2023-07-11T08:28:58.010Z,98302.06
2023-07-11T08:31:26.487Z,98308.53
2023-07-11T08:33:54.705Z,98308.16
2023-07-11T08:36:22.957Z,98292.50
2023-07-11T08:38:51.028Z,98322.75
2023-07-11T08:41:34.026Z,98299.13
2023-07-11T08:44:07.047Z,98294.81
2023-07-11T08:46:41.476Z,98300.78
2023-07-11T08:49:15.732Z,98295.97
2023-07-11T08:51:51.561Z,98294.19
2023-07-11T08:54:23.314Z,98285.16
2023-07-11T08:56:53.585Z,98321.28
2023-07-11T08:59:25.919Z,98313.19
2023-07-11T09:01:59.296Z,98296.44
2023-07-11T09:04:29.043Z,98301.06
2023-07-11T09:07:00.501Z,98299.56
2023-07-11T09:09:28.733Z,98328.84
2023-07-11T09:12:09.481Z,98320.75
2023-07-11T09:14:50.364Z,98317.88
2023-07-11T09:17:26.603Z,98295.88
2023-07-11T09:20:17.211Z,98297.75
2023-07-11T09:22:55.790Z,98309.56
2023-07-11T09:25:29.320Z,98315.66
2023-07-11T09:28:04.675Z,98310.00
2023-07-11T09:30:39.660Z,98323.84
2023-07-11T09:33:16.611Z,98328.78
2023-07-11T09:35:46.738Z,98327.16
2023-07-11T09:38:20.366Z,98325.34
2023-07-11T09:40:53.851Z,98345.56
2023-07-11T09:43:23.521Z,98330.19
2023-07-11T09:45:51.663Z,98327.47
2023-07-11T09:48:23.634Z,98309.22
2023-07-11T09:51:13.724Z,98329.22
2023-07-11T09:53:47.558Z,98317.81
2023-07-11T09:56:18.606Z,98329.63
2023-07-11T09:58:52.034Z,98316.38
2023-07-11T10:01:25.167Z,98331.16
2023-07-11T10:03:56.936Z,98317.47
2023-07-11T10:09:18.049Z,98331.06
2023-07-11T10:11:54.213Z,98319.13
2023-07-11T10:14:28.638Z,98317.53
2023-07-11T10:16:59.076Z,98312.31
2023-07-11T10:19:28.985Z,98329.56
2023-07-11T10:22:01.535Z,98311.38
2023-07-11T10:24:39.092Z,98315.59
2023-07-11T10:27:14.157Z,98307.16
2023-07-11T10:29:48.262Z,98336.56
2023-07-11T10:32:22.710Z,98334.88
2023-07-11T10:34:55.498Z,98331.56
2023-07-11T10:37:32.455Z,98327.16
2023-07-11T10:40:07.194Z,98347.31
2023-07-11T10:42:41.119Z,98331.84
2023-07-11T10:45:16.622Z,98304.94
2023-07-11T10:47:53.943Z,98328.47
2023-07-11T10:50:32.180Z,98354.25
2023-07-11T10:53:06.311Z,98336.50
2023-07-11T10:55:40.251Z,98348.50
2023-07-11T10:58:11.720Z,98331.78
2023-07-11T11:00:51.063Z,98329.06
2023-07-11T11:03:37.272Z,98345.34
2023-07-11T11:06:25.602Z,98331.81
2023-07-11T11:09:05.958Z,98332.41
2023-07-11T11:11:43.376Z,98330.06
2023-07-11T11:14:17.276Z,98338.44
2023-07-11T11:17:01.548Z,98325.00
2023-07-11T11:19:46.680Z,98335.22
2023-07-11T11:22:22.623Z,98330.69
2023-07-11T11:25:00.172Z,98352.69
2023-07-11T11:27:41.715Z,98330.59
2023-07-11T11:30:26.012Z,98329.13
2023-07-11T11:33:13.721Z,98349.03
2023-07-11T11:35:52.721Z,98341.84
2023-07-11T11:38:40.912Z,98341.25
2023-07-11T11:41:14.792Z,98336.78
2023-07-11T11:51:28.641Z,98327.81
2023-07-11T11:54:08.901Z,98304.03
2023-07-11T11:56:43.188Z,98304.34
2023-07-11T11:59:19.453Z,98316.88
2023-07-11T12:02:05.487Z,98313.81
2023-07-11T12:04:56.185Z,98310.78
2023-07-11T12:07:34.114Z,98314.31
2023-07-11T12:10:15.650Z,98319.13
2023-07-11T12:13:19.853Z,98320.88
2023-07-11T12:15:54.279Z,98316.53
2023-07-11T12:18:46.123Z,98321.00
2023-07-11T12:21:48.252Z,98314.81
2023-07-11T12:27:11.896Z,98333.06
2023-07-11T12:29:50.227Z,98308.25
2023-07-11T12:32:50.399Z,98322.22
2023-07-11T12:35:21.273Z,98309.41
2023-07-11T12:38:04.398Z,98316.47
2023-07-11T12:40:37.746Z,98325.03
2023-07-11T12:43:17.715Z,98319.34
2023-07-11T12:45:51.107Z,98329.13
2023-07-11T12:48:22.031Z,98330.22
2023-07-11T12:50:51.905Z,98323.22
2023-07-11T12:53:21.711Z,98309.41
2023-07-11T12:55:51.345Z,98299.13
2023-07-11T12:58:22.084Z,98309.41
2023-07-11T13:00:51.642Z,98294.50
2023-07-11T13:03:27.522Z,98310.53
2023-07-11T13:06:07.323Z,98293.47
2023-07-11T13:08:45.497Z,98314.81
2023-07-11T13:11:21.793Z,98305.03
2023-07-11T13:13:51.096Z,98299.22
2023-07-11T13:16:23.276Z,98306.22
2023-07-11T13:18:53.390Z,98304.00
2023-07-11T13:21:22.397Z,98307.63
2023-07-11T13:23:52.001Z,98302.81
2023-07-11T13:26:22.526Z,98305.91
2023-07-11T13:29:04.906Z,98306.50
2023-07-11T13:31:34.591Z,98306.97
2023-07-11T13:34:04.464Z,98306.31
2023-07-11T13:36:35.907Z,98305.84
2023-07-11T13:39:09.339Z,98311.72
2023-07-11T13:41:40.792Z,98287.69
2023-07-11T13:44:17.705Z,98293.09
2023-07-11T13:46:46.897Z,98297.00
2023-07-11T13:49:21.569Z,98291.00
2023-07-11T13:51:50.376Z,98286.06
2023-07-11T13:54:23.806Z,98280.38
2023-07-11T13:56:52.227Z,98282.53
2023-07-11T13:59:36.880Z,98281.53
2023-07-11T14:02:15.266Z,98285.47
2023-07-11T14:04:43.838Z,98281.53
2023-07-11T14:07:12.855Z,98276.75
2023-07-11T14:09:42.740Z,98285.09
2023-07-11T14:12:15.896Z,98288.59
2023-07-11T14:14:44.161Z,98291.28
2023-07-11T14:17:18.635Z,98279.75
2023-07-11T14:19:47.072Z,98284.31
2023-07-11T14:22:20.255Z,98285.53
2023-07-11T14:24:50.701Z,98275.19
2023-07-11T14:27:19.702Z,98290.63
2023-07-11T14:29:47.895Z,98288.88
2023-07-11T14:32:18.315Z,98284.03
2023-07-11T14:34:46.841Z,98275.69
2023-07-11T14:37:19.240Z,98271.78
2023-07-11T14:39:50.469Z,98268.94
2023-07-11T14:42:27.561Z,98265.22
2023-07-11T14:44:55.753Z,98268.94
2023-07-11T14:47:23.979Z,98263.38
2023-07-11T14:49:52.177Z,98272.28
2023-07-11T14:52:29.987Z,98271.47
2023-07-11T15:00:01.777Z,98271.13
2023-07-11T15:02:33.973Z,98266.03
2023-07-11T15:10:10.671Z,98257.31
2023-07-11T15:17:52.839Z,98264.06
2023-07-11T15:20:23.297Z,98262.25
2023-07-11T15:22:55.197Z,98266.28
2023-07-11T15:25:30.793Z,98260.28
2023-07-11T15:27:59.720Z,98269.06
2023-07-11T15:30:29.110Z,98268.38
2023-07-11T15:32:57.831Z,98263.22
2023-07-11T15:35:27.789Z,98266.75
2023-07-11T15:37:55.914Z,98255.00
2023-07-11T15:40:27.716Z,98259.63
2023-07-11T15:42:56.669Z,98255.13
2023-07-11T15:45:27.006Z,98275.03
2023-07-11T15:47:55.971Z,98266.41
2023-07-11T15:50:26.276Z,98250.81
2023-07-11T15:52:55.255Z,98259.63
2023-07-11T15:55:26.687Z,98261.34
2023-07-11T15:57:57.006Z,98252.00
2023-07-11T16:00:27.465Z,98250.97
2023-07-11T16:02:55.941Z,98242.66
2023-07-11T16:05:26.404Z,98244.38
2023-07-11T16:07:54.644Z,98239.75
2023-07-11T16:10:30.149Z,98249.81
2023-07-11T16:12:58.885Z,98252.38
2023-07-11T16:15:30.950Z,98250.31
2023-07-11T16:17:59.590Z,98241.72
2023-07-11T16:20:31.267Z,98253.72
2023-07-11T16:22:59.508Z,98241.69
2023-07-11T16:25:29.785Z,98235.16
2023-07-11T16:28:00.783Z,98242.19
2023-07-11T16:30:31.444Z,98231.97
2023-07-11T16:33:00.475Z,98240.22
2023-07-11T16:35:35.334Z,98234.88
2023-07-11T16:38:04.589Z,98238.44
2023-07-11T16:40:34.546Z,98230.72
2023-07-11T16:43:02.642Z,98235.97
2023-07-11T16:45:34.679Z,98233.56
2023-07-11T16:48:04.327Z,98230.44
2023-07-11T16:50:35.065Z,98237.94
2023-07-11T16:53:05.438Z,98226.88
2023-07-11T16:55:36.211Z,98232.28
2023-07-11T16:58:15.813Z,98239.72
2023-07-11T17:00:43.980Z,98243.94
2023-07-11T17:03:13.021Z,98240.50
2023-07-11T17:05:41.309Z,98238.16
2023-07-11T17:08:13.833Z,98234.06
2023-07-11T17:10:46.741Z,98231.81
2023-07-11T17:13:23.089Z,98237.06
2023-07-11T17:15:52.152Z,98232.72
2023-07-11T17:18:21.569Z,98233.47
2023-07-11T17:20:49.817Z,98235.44
2023-07-11T17:23:21.268Z,98238.19
2023-07-11T17:25:51.137Z,98233.06
2023-07-11T17:28:21.326Z,98239.41
2023-07-11T17:30:50.565Z,98233.56
2023-07-11T17:33:20.721Z,98230.94
2023-07-11T17:35:50.012Z,98229.34
2023-07-11T17:38:21.820Z,98222.25
2023-07-11T17:40:51.417Z,98220.13
2023-07-11T17:43:23.131Z,98219.47
2023-07-11T17:48:27.271Z,98227.16
2023-07-11T17:50:57.512Z,98225.59
2023-07-11T17:53:26.411Z,98219.38
2023-07-11T17:55:55.976Z,98225.59
2023-07-11T17:58:26.525Z,98224.72
2023-07-11T18:00:57.792Z,98227.13
2023-07-11T18:03:27.255Z,98230.28
2023-07-11T18:05:57.010Z,98229.03
2023-07-11T18:08:27.947Z,98222.56
2023-07-11T18:10:57.579Z,98220.53
2023-07-11T18:13:26.650Z,98217.75
2023-07-11T18:15:55.440Z,98221.28
2023-07-11T18:18:26.162Z,98221.50
2023-07-11T18:20:55.889Z,98221.28
2023-07-11T18:23:24.642Z,98234.59
2023-07-11T18:25:54.913Z,98229.25
2023-07-11T18:28:24.927Z,98228.41
2023-07-11T18:30:53.352Z,98228.94
2023-07-11T18:33:22.495Z,98234.50
2023-07-11T18:35:51.204Z,98235.06
2023-07-11T18:38:22.461Z,98230.22
2023-07-11T18:40:51.416Z,98232.44
2023-07-11T18:43:20.207Z,98232.78
2023-07-11T18:45:50.800Z,98238.81
2023-07-11T18:48:19.027Z,98243.09
2023-07-11T18:50:47.338Z,98245.13
2023-07-11T18:53:15.494Z,98239.59
2023-07-11T18:55:47.217Z,98245.69
2023-07-11T18:58:18.556Z,98243.41
2023-07-11T19:00:50.260Z,98255.13
2023-07-11T19:03:19.896Z,98250.56
2023-07-11T19:05:48.649Z,98243.91
2023-07-11T19:08:18.934Z,98251.50
2023-07-11T19:10:47.608Z,98251.50
2023-07-11T19:13:15.841Z,98243.78
2023-07-11T19:15:44.920Z,98258.31
2023-07-11T19:18:18.224Z,98251.91
2023-07-11T19:20:46.817Z,98261.56
2023-07-11T19:23:16.877Z,98255.53
2023-07-11T19:25:46.856Z,98251.84
2023-07-11T19:28:16.879Z,98247.00
2023-07-11T19:30:47.977Z,98247.63
2023-07-11T19:33:18.235Z,98240.19
2023-07-11T19:35:50.551Z,98242.44
2023-07-11T19:38:20.835Z,98239.97
2023-07-11T19:40:49.799Z,98244.56
2023-07-11T19:43:18.196Z,98237.34
2023-07-11T19:45:48.370Z,98244.09
2023-07-11T19:48:20.363Z,98232.53
2023-07-11T19:50:51.643Z,98237.56
2023-07-11T19:53:21.621Z,98240.75
2023-07-11T19:55:52.133Z,98248.69
2023-07-11T19:58:23.477Z,98238.22
2023-07-11T20:00:55.464Z,98250.19
2023-07-11T20:03:26.043Z,98246.53
2023-07-11T20:05:54.476Z,98239.78
2023-07-11T20:08:24.968Z,98245.47
2023-07-11T20:10:55.178Z,98235.31
2023-07-11T20:13:25.655Z,98229.63
2023-07-11T20:15:56.627Z,98224.66
2023-07-11T20:18:28.597Z,98226.19
2023-07-11T20:20:58.252Z,98212.66
2023-07-11T20:23:26.507Z,98218.94
2023-07-11T20:25:57.491Z,98209.66
2023-07-11T20:28:25.785Z,98213.81
2023-07-11T20:30:56.353Z,98207.38
2023-07-11T20:33:26.078Z,98217.41
2023-07-11T20:35:57.402Z,98207.00
2023-07-11T20:38:26.888Z,98207.91
2023-07-11T20:40:55.003Z,98203.66
2023-07-11T20:43:23.356Z,98203.41
2023-07-11T20:45:52.068Z,98208.22
2023-07-11T20:48:22.920Z,98209.66
2023-07-11T20:50:53.454Z,98211.63
2023-07-11T20:53:22.162Z,98215.06
2023-07-11T20:55:55.948Z,98215.50
2023-07-11T20:58:24.671Z,98204.91
2023-07-11T21:00:53.733Z,98201.47
2023-07-11T21:03:22.631Z,98201.03
2023-07-11T21:05:54.237Z,98202.06
2023-07-11T21:08:26.990Z,98191.78
2023-07-11T21:10:56.308Z,98197.00
2023-07-11T21:13:25.069Z,98190.28
2023-07-11T21:15:55.354Z,98191.75
2023-07-11T21:18:24.975Z,98184.19
2023-07-11T21:20:56.264Z,98185.22
2023-07-11T21:23:25.108Z,98177.75
2023-07-11T21:25:54.977Z,98180.72
2023-07-11T21:28:28.696Z,98178.16
2023-07-11T21:30:58.788Z,98164.59
2023-07-11T21:33:27.960Z,98165.06
2023-07-11T21:36:00.783Z,98168.03
2023-07-11T21:38:30.745Z,98166.81
2023-07-11T21:41:00.980Z,98168.13
2023-07-11T21:43:29.086Z,98164.69
2023-07-11T21:45:59.267Z,98158.75
2023-07-11T21:48:28.943Z,98152.19
2023-07-11T21:50:59.750Z,98152.94
2023-07-11T21:53:29.974Z,98156.50
2023-07-11T21:56:04.020Z,98158.19
2023-07-11T21:58:32.170Z,98145.09
2023-07-11T22:01:00.317Z,98142.22
2023-07-11T22:03:31.783Z,98135.25
2023-07-11T22:06:03.259Z,98133.22
2023-07-11T22:08:34.176Z,98134.09
2023-07-11T22:11:03.282Z,98132.03
2023-07-11T22:13:33.463Z,98131.81
2023-07-11T22:16:01.684Z,98133.50
2023-07-11T22:18:32.031Z,98126.31
2023-07-11T22:21:01.658Z,98119.31
2023-07-11T22:23:30.191Z,98108.63
2023-07-11T22:25:58.262Z,98112.44
2023-07-11T22:28:26.450Z,98113.63
2023-07-11T22:30:56.543Z,98120.69
2023-07-11T22:33:24.707Z,98122.63
2023-07-11T22:35:52.911Z,98119.63
2023-07-11T22:38:22.385Z,98114.84
2023-07-11T22:40:51.799Z,98114.19
2023-07-11T22:43:21.929Z,98105.38
2023-07-11T22:45:53.307Z,98102.25
2023-07-11T22:48:24.250Z,98105.31
2023-07-11T22:50:53.435Z,98101.19
2023-07-11T22:53:26.934Z,98086.63
2023-07-11T22:55:56.898Z,98077.50
2023-07-11T22:58:28.406Z,98072.84
2023-07-11T23:00:58.031Z,98077.97
2023-07-11T23:03:26.843Z,98075.00
2023-07-11T23:05:59.713Z,98080.81
2023-07-11T23:08:32.223Z,98080.81
2023-07-11T23:11:01.812Z,98082.59
2023-07-11T23:13:29.916Z,98094.16
2023-07-11T23:15:59.783Z,98087.13
2023-07-11T23:18:29.158Z,98074.28
2023-07-11T23:20:59.242Z,98089.28
2023-07-11T23:23:30.906Z,98089.72
2023-07-11T23:26:01.273Z,98086.78
2023-07-11T23:28:31.707Z,98092.72
2023-07-11T23:31:03.367Z,98096.53
2023-07-11T23:33:31.718Z,98094.13
2023-07-11T23:36:01.568Z,98100.66
2023-07-11T23:38:31.288Z,98123.75
2023-07-11T23:40:59.426Z,98130.75
2023-07-11T23:43:37.128Z,98133.69
2023-07-11T23:46:17.579Z,98134.44
2023-07-11T23:48:45.789Z,98128.47
2023-07-11T23:51:14.064Z,98131.72
2023-07-11T23:53:44.402Z,98137.69
2023-07-11T23:56:19.266Z,98139.75
2023-07-11T23:58:48.124Z,98132.06
